Time;durP1;ratioP1;P1;durP2;ratioP2;P2;SDS_P1;SDS_P2;PMS_P1;PMS_P2;Temp;Humidity;BMP_temperature;BMP_pressure;BME280_temperature;BME280_humidity;BME280_pressure;Samples;Min_cycle;Max_cycle;Signal;HPM_P1;HPM_P2
2022/11/14 00:02:20;;;;;;;64.82;36.55;;;;;;;8.06;100.00;101953.44;4934762;29;20039;-75
2022/11/14 00:04:47;;;;;;;69.55;40.50;;;;;;;7.93;100.00;101947.25;4918009;29;20028;-75
2022/11/14 00:07:12;;;;;;;66.10;38.13;;;;;;;7.98;100.00;101945.06;4917730;29;20088;-75
2022/11/14 00:09:39;;;;;;;67.53;37.47;;;;;;;8.06;100.00;101953.44;4918277;29;20066;-76
2022/11/14 00:12:05;;;;;;;75.93;40.78;;;;;;;8.11;100.00;101951.25;4933402;29;20064;-75
2022/11/14 00:14:30;;;;;;;76.28;40.92;;;;;;;7.95;100.00;101946.16;4917061;29;20020;-74
2022/11/14 00:16:56;;;;;;;68.43;38.97;;;;;;;7.94;100.00;101933.63;4917434;29;20485;-75
2022/11/14 00:19:21;;;;;;;69.13;39.17;;;;;;;7.89;100.00;101936.72;4918422;29;20044;-76
2022/11/14 00:21:47;;;;;;;70.78;38.65;;;;;;;7.98;100.00;101934.28;4934346;29;20070;-74
2022/11/14 00:24:12;;;;;;;68.13;38.22;;;;;;;8.01;100.00;101939.44;4934284;29;20024;-76
2022/11/14 00:26:37;;;;;;;65.43;39.25;;;;;;;7.99;100.00;101927.91;4919942;29;20038;-74
2022/11/14 00:29:03;;;;;;;70.03;38.10;;;;;;;7.98;100.00;101929.75;4934105;29;20027;-74
2022/11/14 00:31:28;;;;;;;71.43;39.22;;;;;;;8.04;100.00;101923.03;4918782;29;20028;-75
2022/11/14 00:33:54;;;;;;;64.18;36.58;;;;;;;8.15;100.00;101931.19;4933620;29;20031;-74
2022/11/14 00:36:20;;;;;;;67.07;36.80;;;;;;;7.95;100.00;101924.56;4918175;29;20111;-75
2022/11/14 00:38:46;;;;;;;75.75;38.70;;;;;;;8.04;100.00;101928.44;4917519;29;20028;-75
2022/11/14 00:41:11;;;;;;;69.47;38.85;;;;;;;8.00;100.00;101918.84;4932953;29;20058;-74
2022/11/14 00:43:36;;;;;;;74.97;39.95;;;;;;;7.95;100.00;101918.31;4933086;29;20028;-75
2022/11/14 00:46:02;;;;;;;76.95;40.92;;;;;;;7.97;100.00;101919.94;4933501;29;20028;-76
2022/11/14 00:48:28;;;;;;;70.93;41.45;;;;;;;7.92;100.00;101910.47;4917500;29;20028;-75
2022/11/14 00:50:53;;;;;;;73.65;39.40;;;;;;;8.02;100.00;101908.78;4932095;29;20032;-74
2022/11/14 00:53:19;;;;;;;72.97;39.53;;;;;;;7.69;100.00;101904.94;4917786;29;20095;-75
2022/11/14 00:55:44;;;;;;;70.90;39.35;;;;;;;7.73;100.00;101898.38;4916950;29;20075;-76
2022/11/14 00:58:10;;;;;;;76.18;40.63;;;;;;;7.89;100.00;101901.66;4917293;29;20024;-75
2022/11/14 01:00:35;;;;;;;72.40;39.17;;;;;;;7.70;100.00;101887.81;4932954;29;20075;-79
2022/11/14 01:03:01;;;;;;;72.03;40.92;;;;;;;7.72;100.00;101891.25;4918878;29;20038;-75
2022/11/14 01:05:27;;;;;;;75.10;40.67;;;;;;;7.80;100.00;101883.44;4917028;29;20032;-75
2022/11/14 01:07:53;;;;;;;74.20;40.65;;;;;;;7.74;100.00;101873.13;4933100;29;20042;-75
2022/11/14 01:10:19;;;;;;;74.82;41.53;;;;;;;7.78;100.00;101880.03;4932248;29;20066;-76
2022/11/14 01:12:45;;;;;;;71.65;39.50;;;;;;;7.78;100.00;101880.03;4932418;29;20028;-74
2022/11/14 01:15:10;;;;;;;70.20;39.58;;;;;;;7.68;100.00;101873.59;4932059;29;20024;-75
2022/11/14 01:17:35;;;;;;;74.32;39.33;;;;;;;7.75;100.00;101876.69;4916725;29;20047;-75
2022/11/14 01:20:01;;;;;;;75.32;41.10;;;;;;;7.84;100.00;101868.78;4932274;29;20036;-75
2022/11/14 01:22:29;;;;;;;74.70;40.05;;;;;;;7.66;100.00;101864.75;4916366;29;20049;-75
2022/11/14 01:24:57;;;;;;;78.70;42.53;;;;;;;7.66;100.00;101875.53;4916568;29;20060;-75
2022/11/14 01:27:23;;;;;;;85.97;43.72;;;;;;;7.67;100.00;101871.88;4932463;29;20508;-74
2022/11/14 01:29:48;;;;;;;81.53;41.92;;;;;;;7.59;100.00;101868.91;4932517;29;20027;-74
2022/11/14 01:32:14;;;;;;;77.85;41.60;;;;;;;7.64;100.00;101869.41;4916962;29;20410;-74
2022/11/14 01:34:39;;;;;;;87.50;44.65;;;;;;;7.58;100.00;101861.78;4915775;29;20035;-74
2022/11/14 01:37:04;;;;;;;78.20;42.08;;;;;;;7.57;100.00;101854.69;4916286;29;20111;-73
2022/11/14 01:39:30;;;;;;;78.65;43.88;;;;;;;7.54;100.00;101857.59;4916403;29;20088;-74
2022/11/14 01:41:55;;;;;;;76.80;41.15;;;;;;;7.47;100.00;101859.88;4916743;29;20500;-74
2022/11/14 01:44:46;;;;;;;81.30;43.33;;;;;;;7.34;100.00;101843.75;4916441;29;20135;-76
2022/11/14 01:47:15;;;;;;;81.50;41.45;;;;;;;7.46;100.00;101841.13;4932390;29;20028;-74
2022/11/14 01:49:45;;;;;;;80.60;41.97;;;;;;;7.45;100.00;101839.44;4932373;29;20054;-74
2022/11/14 01:52:14;;;;;;;94.03;46.90;;;;;;;7.50;100.00;101831.88;4932414;29;20074;-74
2022/11/14 01:54:53;;;;;;;78.43;42.35;;;;;;;7.48;100.00;101825.72;4916018;29;20032;-75
2022/11/14 01:57:29;;;;;;;78.63;41.38;;;;;;;7.50;100.00;101826.47;4916404;29;20020;-74
2022/11/14 01:59:58;;;;;;;77.05;40.90;;;;;;;7.71;100.00;101830.25;4932769;29;20035;-75
2022/11/14 02:02:25;;;;;;;80.80;42.13;;;;;;;7.77;100.00;101819.00;4917254;29;20099;-75
2022/11/14 02:05:04;;;;;;;77.95;41.08;;;;;;;7.48;100.00;101817.63;4935920;29;20117;-74
2022/11/14 02:07:33;;;;;;;83.05;43.22;;;;;;;7.63;100.00;101819.19;4921632;29;20032;-75
2022/11/14 02:10:02;;;;;;;83.90;42.97;;;;;;;7.48;100.00;101806.84;4935709;29;20035;-74
2022/11/14 02:12:28;;;;;;;84.80;45.85;;;;;;;7.37;100.00;101809.47;4936683;29;20024;-74
2022/11/14 02:14:56;;;;;;;88.65;45.25;;;;;;;7.42;100.00;101801.91;4919703;29;20051;-75
2022/11/14 02:17:23;;;;;;;87.05;45.53;;;;;;;7.49;100.00;101792.38;4920585;29;20031;-74
2022/11/14 02:19:53;;;;;;;82.30;43.47;;;;;;;7.45;100.00;101796.31;4919595;29;20379;-75
2022/11/14 02:22:18;;;;;;;83.53;44.05;;;;;;;7.37;100.00;101787.94;4935511;29;20024;-73
2022/11/14 02:24:44;;;;;;;84.20;44.60;;;;;;;7.43;100.00;101776.69;4935574;29;20072;-74
2022/11/14 02:27:11;;;;;;;78.43;41.30;;;;;;;7.46;100.00;101779.16;4919972;29;20088;-75
2022/11/14 02:29:37;;;;;;;78.47;42.10;;;;;;;7.50;100.00;101783.34;4920802;29;20385;-77
2022/11/14 02:32:02;;;;;;;80.00;41.13;;;;;;;7.58;100.00;101780.94;4936043;29;20034;-74
2022/11/14 02:34:28;;;;;;;88.75;47.05;;;;;;;7.47;100.00;101778.19;4919153;29;20020;-75
2022/11/14 02:36:54;;;;;;;85.25;43.92;;;;;;;7.46;100.00;101776.47;4920661;29;20055;-74
2022/11/14 02:39:19;;;;;;;85.05;43.53;;;;;;;7.62;100.00;101777.00;4935660;29;20036;-74
2022/11/14 02:41:45;;;;;;;83.53;45.53;;;;;;;7.43;100.00;101760.53;4935246;29;20036;-75
2022/11/14 02:44:10;;;;;;;89.53;45.78;;;;;;;7.34;100.00;101773.72;4935175;29;20036;-75
2022/11/14 02:46:35;;;;;;;85.90;44.03;;;;;;;7.30;100.00;101761.47;4935315;29;20036;-74
2022/11/14 02:49:01;;;;;;;82.53;43.45;;;;;;;7.39;100.00;101759.06;4919328;29;20028;-75
2022/11/14 02:51:26;;;;;;;88.80;45.90;;;;;;;7.42;100.00;101753.41;4919528;29;20401;-75
2022/11/14 02:53:52;;;;;;;88.28;44.53;;;;;;;7.57;100.00;101757.66;4920637;29;20040;-74
2022/11/14 02:56:17;;;;;;;81.88;44.17;;;;;;;7.50;100.00;101751.03;4920486;29;20144;-74
2022/11/14 02:58:42;;;;;;;96.07;45.20;;;;;;;7.49;100.00;101746.59;4920841;29;20028;-73
2022/11/14 03:01:08;;;;;;;84.15;43.38;;;;;;;7.57;100.00;101752.28;4934416;29;20032;-73
2022/11/14 03:03:33;;;;;;;82.40;45.20;;;;;;;7.49;100.00;101743.88;4918589;29;20028;-74
2022/11/14 03:06:00;;;;;;;88.35;44.53;;;;;;;7.55;100.00;101743.41;4934805;29;20063;-74
2022/11/14 03:08:25;;;;;;;81.68;44.00;;;;;;;7.56;100.00;101737.06;4919039;29;20039;-74
2022/11/14 03:10:51;;;;;;;87.50;45.47;;;;;;;7.46;100.00;101727.97;4934378;29;20028;-74
2022/11/14 03:13:16;;;;;;;94.85;47.65;;;;;;;7.41;100.00;101722.06;4919264;29;20028;-73
2022/11/14 03:15:41;;;;;;;94.72;47.03;;;;;;;7.42;100.00;101726.47;4917793;29;20043;-73
2022/11/14 03:18:07;;;;;;;92.60;46.00;;;;;;;7.59;100.00;101728.75;4934116;29;20028;-74
2022/11/14 03:20:33;;;;;;;86.30;45.92;;;;;;;7.54;100.00;101720.16;4934127;29;20091;-74
2022/11/14 03:22:58;;;;;;;97.00;48.35;;;;;;;7.40;100.00;101715.81;4919929;29;20083;-74
2022/11/14 03:25:24;;;;;;;91.20;46.75;;;;;;;7.30;100.00;101706.72;4919955;29;20031;-74
2022/11/14 03:27:49;;;;;;;92.05;43.38;;;;;;;7.35;100.00;101705.38;4920042;29;20031;-74
2022/11/14 03:30:14;;;;;;;89.97;45.95;;;;;;;7.50;100.00;101702.53;4934595;29;20118;-74
2022/11/14 03:32:40;;;;;;;92.25;47.25;;;;;;;7.42;100.00;101700.38;4918170;29;20111;-75
2022/11/14 03:35:06;;;;;;;95.47;48.10;;;;;;;7.18;100.00;101692.38;4919612;29;20039;-75
2022/11/14 03:37:31;;;;;;;88.25;46.33;;;;;;;7.35;100.00;101700.00;4934071;29;20027;-74
2022/11/14 03:39:56;;;;;;;92.28;46.75;;;;;;;7.53;100.00;101696.88;4934143;29;20032;-75
2022/11/14 03:42:22;;;;;;;89.28;46.10;;;;;;;7.47;100.00;101697.34;4919292;29;20091;-76
2022/11/14 03:44:47;;;;;;;87.90;46.33;;;;;;;7.45;100.00;101704.69;4919824;29;20039;-75
2022/11/14 03:47:13;;;;;;;87.95;46.05;;;;;;;7.59;100.00;101688.31;4934618;29;20028;-75
2022/11/14 03:49:38;;;;;;;84.18;44.58;;;;;;;7.69;100.00;101697.38;4917894;29;20400;-75
2022/11/14 03:52:03;;;;;;;94.65;46.88;;;;;;;7.55;100.00;101684.13;4919370;29;20119;-75
2022/11/14 03:54:29;;;;;;;89.95;46.03;;;;;;;7.44;100.00;101681.44;4933749;29;20396;-75
2022/11/14 03:56:54;;;;;;;82.28;43.72;;;;;;;7.27;100.00;101686.25;4917451;29;20040;-75
2022/11/14 03:59:20;;;;;;;87.78;46.30;;;;;;;7.30;100.00;101675.28;4934061;29;20036;-75
2022/11/14 04:01:45;;;;;;;90.18;46.28;;;;;;;7.41;100.00;101681.66;4933878;29;20028;-75
2022/11/14 04:04:11;;;;;;;91.25;49.13;;;;;;;7.19;100.00;101675.22;4933799;29;20042;-75
2022/11/14 04:06:37;;;;;;;85.00;45.72;;;;;;;7.11;100.00;101674.94;4933693;29;20032;-75
2022/11/14 04:09:03;;;;;;;100.63;47.40;;;;;;;7.27;100.00;101680.88;4935506;23;20126;-72
2022/11/14 04:11:28;;;;;;;84.72;45.88;;;;;;;7.33;100.00;101675.03;4947239;29;20464;-72
2022/11/14 04:13:53;;;;;;;86.30;44.10;;;;;;;7.31;100.00;101676.97;4950038;29;20027;-72
2022/11/14 04:16:19;;;;;;;88.93;43.75;;;;;;;7.21;100.00;101675.97;4953488;29;20039;-72
2022/11/14 04:18:44;;;;;;;88.38;45.28;;;;;;;7.18;100.00;101670.81;4953061;29;20027;-72
2022/11/14 04:21:09;;;;;;;87.88;46.80;;;;;;;7.26;100.00;101668.38;4953149;29;20091;-72
2022/11/14 04:23:35;;;;;;;80.63;43.22;;;;;;;7.38;100.00;101671.13;4954451;28;20070;-72
2022/11/14 04:26:00;;;;;;;86.05;43.50;;;;;;;7.48;100.00;101666.72;4953045;28;20031;-72
2022/11/14 04:28:25;;;;;;;92.90;47.15;;;;;;;7.55;100.00;101659.88;4952738;29;20280;-73
2022/11/14 04:30:51;;;;;;;81.82;44.60;;;;;;;7.58;100.00;101656.97;4952955;29;20034;-73
2022/11/14 04:33:16;;;;;;;89.47;45.03;;;;;;;7.48;100.00;101661.34;4953936;28;20134;-72
2022/11/14 04:35:41;;;;;;;92.55;45.92;;;;;;;7.44;100.00;101643.72;4953395;28;20034;-72
2022/11/14 04:38:09;;;;;;;86.22;45.90;;;;;;;7.54;100.00;101644.69;4968884;28;20098;-72
2022/11/14 04:40:34;;;;;;;85.43;44.55;;;;;;;7.37;100.00;101647.81;4949451;28;20081;-72
2022/11/14 04:42:59;;;;;;;87.50;46.55;;;;;;;7.52;100.00;101636.75;4949838;28;20027;-72
2022/11/14 04:45:25;;;;;;;88.88;45.10;;;;;;;7.27;100.00;101643.16;4948895;28;20027;-71
2022/11/14 04:47:50;;;;;;;78.47;44.25;;;;;;;7.24;100.00;101637.19;4949350;29;20103;-73
2022/11/14 04:50:16;;;;;;;93.95;46.03;;;;;;;7.14;100.00;101639.69;4934328;29;20035;-71
2022/11/14 04:52:41;;;;;;;91.07;46.42;;;;;;;7.19;100.00;101634.81;4935287;29;20110;-71
2022/11/14 04:55:07;;;;;;;91.53;43.85;;;;;;;7.19;100.00;101626.75;4934656;29;20042;-71
2022/11/14 04:57:32;;;;;;;89.60;45.67;;;;;;;7.10;100.00;101630.13;4950122;29;20023;-71
2022/11/14 04:59:58;;;;;;;89.20;44.92;;;;;;;7.26;100.00;101636.06;4933052;29;20027;-72
2022/11/14 05:02:23;;;;;;;80.85;42.30;;;;;;;7.44;100.00;101628.41;4949302;29;20039;-72
2022/11/14 05:04:48;;;;;;;87.20;44.70;;;;;;;7.33;100.00;101626.53;4933675;29;20031;-72
2022/11/14 05:07:14;;;;;;;93.75;46.40;;;;;;;7.20;100.00;101625.75;4948917;29;20019;-71
2022/11/14 05:09:39;;;;;;;84.90;43.55;;;;;;;7.22;100.00;101629.19;4954878;28;20047;-72
2022/11/14 05:12:05;;;;;;;85.72;43.75;;;;;;;7.21;100.00;101619.41;4962751;28;20176;-73
2022/11/14 05:14:31;;;;;;;92.35;45.05;;;;;;;7.32;100.00;101622.13;4972639;28;20031;-71
2022/11/14 05:16:57;;;;;;;100.18;48.53;;;;;;;7.13;100.00;101619.13;4966374;28;20039;-71
2022/11/14 05:19:22;;;;;;;94.53;47.25;;;;;;;7.02;100.00;101616.38;4933870;29;20023;-71
2022/11/14 05:21:48;;;;;;;100.18;49.00;;;;;;;6.88;100.00;101613.91;4948472;29;20034;-72
2022/11/14 05:24:13;;;;;;;89.15;46.80;;;;;;;6.83;100.00;101610.69;4948478;29;20032;-72
2022/11/14 05:26:38;;;;;;;99.43;46.00;;;;;;;6.98;100.00;101605.00;4948652;29;20031;-72
2022/11/14 05:29:04;;;;;;;91.90;44.78;;;;;;;6.94;100.00;101592.75;4934075;29;20032;-72
2022/11/14 05:31:29;;;;;;;94.95;48.00;;;;;;;6.89;100.00;101599.47;4933663;29;20059;-72
2022/11/14 05:33:54;;;;;;;97.32;47.28;;;;;;;6.90;100.00;101593.09;4933454;29;20019;-72
2022/11/14 05:36:20;;;;;;;99.65;46.85;;;;;;;6.95;100.00;101593.59;4948502;29;20051;-72
2022/11/14 05:38:45;;;;;;;92.20;46.03;;;;;;;7.11;100.00;101588.78;4937087;29;20396;-72
2022/11/14 05:41:13;;;;;;;95.32;46.50;;;;;;;7.15;100.00;101597.47;4950862;28;20114;-72
2022/11/14 05:43:40;;;;;;;93.78;46.45;;;;;;;7.04;100.00;101603.66;4951578;28;20058;-72
2022/11/14 05:46:08;;;;;;;106.40;51.10;;;;;;;7.19;100.00;101591.72;4932403;29;20028;-72
2022/11/14 05:48:34;;;;;;;100.40;49.72;;;;;;;7.15;100.00;101595.63;4948784;29;20039;-72
2022/11/14 05:51:01;;;;;;;106.25;50.53;;;;;;;6.87;100.00;101579.88;4936986;29;20031;-72
2022/11/14 05:53:29;;;;;;;101.63;51.35;;;;;;;6.92;100.00;101593.84;4951246;28;20051;-72
2022/11/14 05:55:54;;;;;;;100.43;47.58;;;;;;;6.88;100.00;101597.75;4952079;28;20094;-72
2022/11/14 05:58:20;;;;;;;98.38;46.97;;;;;;;7.02;100.00;101600.25;4967946;28;20019;-72
2022/11/14 06:00:45;;;;;;;95.30;50.45;;;;;;;6.93;100.00;101606.34;4933430;29;20082;-72
2022/11/14 06:03:12;;;;;;;94.68;48.58;;;;;;;7.00;100.00;101602.19;4933391;29;20031;-72
2022/11/14 06:05:37;;;;;;;103.20;49.60;;;;;;;6.93;100.00;101595.56;4932317;29;20027;-72
2022/11/14 06:08:03;;;;;;;110.93;51.38;;;;;;;6.82;100.00;101599.06;4932879;29;20035;-72
2022/11/14 06:10:29;;;;;;;101.93;48.55;;;;;;;6.86;100.00;101605.09;4948735;28;20034;-72
2022/11/14 06:12:54;;;;;;;96.70;49.50;;;;;;;6.70;100.00;101611.59;4971040;28;20159;-72
2022/11/14 06:15:20;;;;;;;96.72;47.42;;;;;;;6.88;100.00;101614.75;4970432;28;20117;-72
2022/11/14 06:17:45;;;;;;;95.15;49.50;;;;;;;6.91;100.00;101603.78;4971965;28;20096;-73
2022/11/14 06:20:14;;;;;;;95.15;47.72;;;;;;;6.89;100.00;101600.31;4972194;28;20026;-73
2022/11/14 06:22:40;;;;;;;93.68;49.00;;;;;;;6.90;100.00;101609.25;4971929;28;20022;-72
2022/11/14 06:25:06;;;;;;;96.78;49.95;;;;;;;6.79;100.00;101610.94;4970419;28;20098;-71
2022/11/14 06:27:31;;;;;;;99.55;50.28;;;;;;;6.75;100.00;101601.38;4957422;28;20034;-71
2022/11/14 06:29:56;;;;;;;108.50;48.80;;;;;;;6.71;100.00;101607.94;4933780;29;20107;-71
2022/11/14 06:32:22;;;;;;;100.03;48.17;;;;;;;6.66;100.00;101599.38;4933832;29;20074;-73
2022/11/14 06:34:47;;;;;;;98.03;48.65;;;;;;;6.65;100.00;101597.66;4948172;29;20055;-73
2022/11/14 06:37:12;;;;;;;100.53;47.13;;;;;;;6.59;100.00;101598.13;4933370;29;20028;-71
2022/11/14 06:39:38;;;;;;;104.97;49.72;;;;;;;6.67;100.00;101601.09;4942774;28;20038;-71
2022/11/14 06:42:03;;;;;;;102.30;48.97;;;;;;;6.83;100.00;101599.91;4951567;28;20031;-74
2022/11/14 06:44:28;;;;;;;104.22;51.25;;;;;;;6.82;100.00;101592.81;4943935;28;20027;-73
2022/11/14 06:46:55;;;;;;;100.97;48.20;;;;;;;6.92;100.00;101600.09;4948653;29;20028;-71
2022/11/14 06:49:20;;;;;;;105.30;47.25;;;;;;;7.03;100.00;101601.94;4933356;29;20026;-72
2022/11/14 06:51:46;;;;;;;105.57;51.10;;;;;;;6.87;100.00;101590.66;4935511;28;20023;-73
2022/11/14 06:54:11;;;;;;;122.68;52.45;;;;;;;6.94;100.00;101592.75;4936340;29;20027;-71
2022/11/14 06:56:37;;;;;;;114.28;53.30;;;;;;;6.98;100.00;101602.31;4946084;29;20033;-71
2022/11/14 06:59:02;;;;;;;117.72;57.92;;;;;;;6.80;100.00;101593.81;4953648;29;20034;-71
2022/11/14 07:01:28;;;;;;;105.35;51.33;;;;;;;6.80;100.00;101601.88;4943585;29;20027;-71
2022/11/14 07:03:53;;;;;;;106.97;51.65;;;;;;;6.60;100.00;101589.06;4948831;29;20022;-71
2022/11/14 07:06:25;;;;;;;110.10;46.83;;;;;;;6.66;100.00;101596.69;4944384;28;20027;-71
2022/11/14 07:08:52;;;;;;;117.03;51.85;;;;;;;6.61;100.00;101596.16;4960420;28;20381;-71
2022/11/14 07:11:24;;;;;;;109.93;50.65;;;;;;;6.71;100.00;101599.00;4953390;28;20114;-71
2022/11/14 07:13:55;;;;;;;110.15;51.85;;;;;;;6.82;100.00;101600.91;4952032;28;20095;-71
2022/11/14 07:16:24;;;;;;;107.47;50.45;;;;;;;6.86;100.00;101599.72;4953994;29;20047;-71
2022/11/14 07:18:49;;;;;;;116.07;51.70;;;;;;;6.92;100.00;101593.84;4956130;28;20030;-73
2022/11/14 07:21:15;;;;;;;110.00;50.97;;;;;;;6.80;100.00;101599.19;4955826;29;20031;-73
2022/11/14 07:23:40;;;;;;;111.90;53.40;;;;;;;6.83;100.00;101594.53;4952710;28;20020;-73
2022/11/14 07:26:08;;;;;;;109.47;52.60;;;;;;;6.87;100.00;101590.66;4948013;29;20035;-73
2022/11/14 07:28:40;;;;;;;111.70;51.60;;;;;;;6.80;100.00;101591.13;4944688;29;20098;-73
2022/11/14 07:31:08;;;;;;;112.00;52.35;;;;;;;6.75;100.00;101601.38;4946155;29;20031;-73
2022/11/14 07:33:34;;;;;;;110.63;50.22;;;;;;;6.80;100.00;101604.56;4936216;29;20051;-73
2022/11/14 07:35:59;;;;;;;113.93;54.00;;;;;;;6.85;100.00;101603.38;4951050;28;20074;-73
2022/11/14 07:38:25;;;;;;;124.82;56.08;;;;;;;6.70;100.00;101611.59;4936137;29;20059;-73
2022/11/14 07:40:54;;;;;;;120.05;54.92;;;;;;;6.68;100.00;101613.56;4958103;28;20079;-72
2022/11/14 07:43:20;;;;;;;121.57;56.15;;;;;;;6.58;100.00;101596.38;4927746;28;20072;-72
2022/11/14 07:45:45;;;;;;;115.88;51.50;;;;;;;6.63;100.00;101604.13;4922137;28;20028;-72
2022/11/14 07:48:10;;;;;;;115.57;55.05;;;;;;;6.66;100.00;101599.38;4931689;28;20074;-72
2022/11/14 07:50:36;;;;;;;113.28;51.00;;;;;;;6.75;100.00;101598.66;4946913;28;20062;-73
2022/11/14 07:53:02;;;;;;;114.90;48.90;;;;;;;6.91;100.00;101603.78;4948961;28;20558;-72
2022/11/14 07:55:27;;;;;;;117.72;52.63;;;;;;;7.01;100.00;101603.91;4943461;28;20031;-72
2022/11/14 07:57:53;;;;;;;112.38;54.88;;;;;;;6.93;100.00;101595.56;4926577;28;20027;-73
2022/11/14 08:00:19;;;;;;;120.25;52.95;;;;;;;6.90;100.00;101595.78;4947537;28;20039;-73
2022/11/14 08:02:45;;;;;;;126.22;54.22;;;;;;;7.05;100.00;101600.88;4938146;28;20023;-72
2022/11/14 08:05:11;;;;;;;119.72;53.05;;;;;;;7.16;100.00;101602.72;4938239;28;20029;-73
2022/11/14 08:07:36;;;;;;;122.30;54.58;;;;;;;6.71;100.00;101591.78;4941829;28;20467;-72
2022/11/14 08:10:05;;;;;;;120.75;54.90;;;;;;;6.72;100.00;101588.16;4940144;28;20038;-73
2022/11/14 08:12:30;;;;;;;107.90;50.75;;;;;;;6.87;100.00;101590.66;4942173;28;20034;-73
2022/11/14 08:14:56;;;;;;;125.25;57.72;;;;;;;6.77;100.00;101591.31;4939226;28;20032;-72
2022/11/14 08:17:22;;;;;;;119.05;51.50;;;;;;;6.68;100.00;101592.03;4943612;28;20027;-72
2022/11/14 08:19:47;;;;;;;126.10;54.80;;;;;;;6.58;100.00;101585.63;4948058;28;20114;-72
2022/11/14 08:22:12;;;;;;;122.05;53.92;;;;;;;6.64;100.00;101582.47;4935607;28;20110;-73
2022/11/14 08:24:38;;;;;;;121.47;51.70;;;;;;;6.90;100.00;101574.25;4941161;28;20019;-73
2022/11/14 08:27:03;;;;;;;112.18;49.75;;;;;;;6.70;100.00;101573.94;4950225;28;20089;-73
2022/11/14 08:29:28;;;;;;;118.75;53.67;;;;;;;6.71;100.00;101570.25;4940565;28;20023;-74
2022/11/14 08:31:54;;;;;;;111.65;47.72;;;;;;;6.94;100.00;101575.75;4936641;28;20077;-74
2022/11/14 08:34:21;;;;;;;112.95;50.75;;;;;;;7.01;100.00;101577.00;4937046;28;20160;-74
2022/11/14 08:36:46;;;;;;;120.93;51.10;;;;;;;7.02;100.00;101584.09;4936244;28;20038;-74
2022/11/14 08:39:12;;;;;;;106.85;47.80;;;;;;;7.11;100.00;101575.31;4937327;28;20047;-74
2022/11/14 08:41:37;;;;;;;110.10;46.88;;;;;;;7.08;100.00;101578.22;4949416;28;20034;-74
2022/11/14 08:44:03;;;;;;;106.93;49.55;;;;;;;7.17;100.00;101582.03;4932824;28;20098;-74
2022/11/14 08:46:28;;;;;;;114.82;50.80;;;;;;;7.02;100.00;101573.31;4932852;28;20522;-74
2022/11/14 08:48:53;;;;;;;110.03;52.55;;;;;;;6.84;100.00;101583.66;4943653;28;20021;-72
2022/11/14 08:51:19;;;;;;;126.55;52.60;;;;;;;7.03;100.00;101575.88;4936049;28;20460;-72
2022/11/14 08:53:44;;;;;;;122.78;50.78;;;;;;;7.01;100.00;101571.59;4936212;28;20034;-72
2022/11/14 08:56:10;;;;;;;116.60;49.47;;;;;;;7.05;100.00;101583.88;4937993;28;20036;-73
2022/11/14 08:58:35;;;;;;;110.38;48.85;;;;;;;6.99;100.00;101578.94;4931776;28;20063;-72
2022/11/14 09:01:06;;;;;;;108.90;47.80;;;;;;;6.87;100.00;101579.88;4931865;28;20039;-73
2022/11/14 09:03:31;;;;;;;119.07;51.08;;;;;;;6.79;100.00;101567.88;4933180;28;20054;-73
2022/11/14 09:05:57;;;;;;;118.75;47.88;;;;;;;6.86;100.00;101568.25;4932949;28;20070;-73
2022/11/14 09:08:22;;;;;;;116.82;49.75;;;;;;;6.88;100.00;101576.22;4940334;28;20027;-72
2022/11/14 09:10:47;;;;;;;119.07;49.03;;;;;;;7.01;100.00;101566.22;4938702;28;20029;-73
2022/11/14 09:13:13;;;;;;;111.43;48.65;;;;;;;7.07;100.00;101560.34;4938883;28;20042;-72
2022/11/14 09:15:38;;;;;;;122.70;48.67;;;;;;;7.09;100.00;101558.41;4933643;28;20082;-72
2022/11/14 09:18:04;;;;;;;113.40;53.47;;;;;;;7.01;100.00;101560.84;4934505;28;20023;-72
2022/11/14 09:20:29;;;;;;;112.15;50.53;;;;;;;6.80;100.00;101568.72;4934705;28;20019;-72
2022/11/14 09:22:58;;;;;;;115.68;51.17;;;;;;;6.87;100.00;101569.13;4942884;28;20051;-72
2022/11/14 09:25:25;;;;;;;117.10;51.03;;;;;;;6.85;100.00;101560.31;4931811;28;20025;-72
2022/11/14 09:27:51;;;;;;;119.30;49.80;;;;;;;7.02;100.00;101562.53;4932275;28;20095;-72
2022/11/14 09:30:17;;;;;;;126.03;51.08;;;;;;;6.89;100.00;101561.78;4934869;28;20020;-72
2022/11/14 09:32:42;;;;;;;117.22;48.78;;;;;;;6.97;100.00;101559.34;4934799;28;20031;-72
2022/11/14 09:35:11;;;;;;;109.60;49.65;;;;;;;6.90;100.00;101547.34;4942374;28;20121;-72
2022/11/14 09:37:37;;;;;;;110.97;49.55;;;;;;;6.99;100.00;101560.09;4934379;28;20024;-72
2022/11/14 09:40:03;;;;;;;123.90;51.03;;;;;;;7.01;100.00;101550.91;4922628;28;20023;-74
2022/11/14 09:42:53;;;;;;;112.32;51.17;;;;;;;7.17;100.00;101550.59;4940155;28;20384;-74
2022/11/14 09:45:19;;;;;;;110.60;48.65;;;;;;;7.32;100.00;101544.00;4937396;28;20038;-74
2022/11/14 09:48:06;;;;;;;105.28;49.28;;;;;;;7.07;100.00;101544.22;4940345;28;20383;-74
2022/11/14 09:50:42;;;;;;;107.70;47.88;;;;;;;7.08;100.00;101524.38;4937223;28;20023;-74
2022/11/14 09:53:30;;;;;;;105.93;49.35;;;;;;;7.16;100.00;101532.69;4939216;28;20113;-74
2022/11/14 09:55:57;;;;;;;102.82;46.83;;;;;;;7.27;100.00;101530.03;4933265;28;20046;-74
2022/11/14 09:58:22;;;;;;;114.00;47.53;;;;;;;7.42;100.00;101527.97;4946741;28;20031;-72
2022/11/14 10:01:00;;;;;;;107.57;49.88;;;;;;;7.20;100.00;101539.56;4932676;28;20034;-72
2022/11/14 10:03:41;;;;;;;98.00;45.70;;;;;;;7.29;100.00;101538.84;4944199;28;20047;-73
2022/11/14 10:06:27;;;;;;;111.72;47.15;;;;;;;7.44;100.00;101546.72;4942405;28;20142;-73
2022/11/14 10:09:26;;;;;;;101.25;47.88;;;;;;;7.30;100.00;101537.91;4931764;28;20031;-72
2022/11/14 10:12:01;;;;;;;102.13;47.28;;;;;;;7.34;100.00;101539.34;4949356;28;20031;-72
2022/11/14 10:14:35;;;;;;;97.82;44.83;;;;;;;7.26;100.00;101522.94;4931681;28;20036;-73
2022/11/14 10:17:36;;;;;;;96.70;45.20;;;;;;;7.42;100.00;101529.78;4938929;28;20032;-73
2022/11/14 10:20:06;;;;;;;98.57;44.33;;;;;;;7.60;100.00;101526.50;4925942;28;20515;-73
2022/11/14 10:22:43;;;;;;;91.05;46.88;;;;;;;7.61;100.00;101520.13;4935855;28;20086;-73
2022/11/14 10:25:34;;;;;;;104.75;47.75;;;;;;;7.36;100.00;101517.66;4946707;28;20099;-72
2022/11/14 10:28:12;;;;;;;101.53;45.97;;;;;;;7.46;100.00;101507.03;4948274;28;20027;-72
2022/11/14 10:31:00;;;;;;;98.22;47.70;;;;;;;7.39;100.00;101508.50;4945986;28;20042;-72
2022/11/14 10:33:45;;;;;;;97.45;46.65;;;;;;;7.65;100.00;101491.09;4948860;28;20623;-73
2022/11/14 10:36:19;;;;;;;101.95;47.15;;;;;;;7.70;100.00;101483.50;4939884;28;20531;-73
2022/11/14 10:39:15;;;;;;;94.35;44.30;;;;;;;7.86;100.00;101486.63;4946437;28;20032;-73
2022/11/14 10:41:42;;;;;;;97.43;45.50;;;;;;;7.90;100.00;101484.56;4935503;28;20091;-73
2022/11/14 10:44:16;;;;;;;91.85;44.75;;;;;;;7.91;100.00;101480.03;4946698;28;20028;-73
2022/11/14 10:46:49;;;;;;;102.68;46.75;;;;;;;7.71;100.00;101474.44;4936913;28;20023;-73
2022/11/14 10:49:20;;;;;;;88.38;41.30;;;;;;;7.87;100.00;101471.31;4953523;28;20030;-73
2022/11/14 10:51:51;;;;;;;86.45;42.00;;;;;;;8.12;100.00;101472.84;4931921;28;20031;-72
2022/11/14 10:54:22;;;;;;;85.50;44.23;;;;;;;8.13;100.00;101458.38;4947883;28;20019;-73
2022/11/14 10:56:50;;;;;;;97.03;42.88;;;;;;;8.16;99.79;101452.75;4947935;28;20349;-74
2022/11/14 10:59:16;;;;;;;99.68;49.42;;;;;;;8.15;99.94;101462.69;4944348;28;20077;-72
2022/11/14 11:01:45;;;;;;;88.03;45.35;;;;;;;8.13;100.00;101456.53;4937516;28;20023;-74
2022/11/14 11:04:23;;;;;;;88.00;43.90;;;;;;;8.14;100.00;101454.69;4943029;28;20096;-74
2022/11/14 11:06:51;;;;;;;89.38;43.92;;;;;;;8.33;99.68;101438.66;4945723;28;20039;-74
2022/11/14 11:12:04;;;;;;;83.47;41.45;;;;;;;8.38;98.75;101425.69;4941380;28;20445;-74